| time (UTC) | temp C | wind direction | speed KPH | gust KPH | rain 1hr cm | rain 24hr cm | rain mn cm | humidity % | barometer mb |
| 20260504180027 | 17 | 94 | 0.0 | 4.8 | 0.00 | 0.25 | 0.25 | 78 | 1004.0 |
| 20260504175527 | 17 | 96 | 0.0 | 3.2 | 0.00 | 0.25 | 0.25 | 78 | 1004.0 |
| 20260504175026 | 17 | 96 | 0.0 | 4.8 | 0.00 | 0.25 | 0.25 | 78 | 1004.1 |
| 20260504174526 | 17 | 97 | 0.0 | 4.8 | 0.00 | 0.25 | 0.25 | 79 | 1004.1 |
| 20260504174026 | 17 | 97 | 0.0 | 3.2 | 0.00 | 0.25 | 0.25 | 78 | 1004.2 |
| 20260504173526 | 17 | 97 | 0.0 | 3.2 | 0.00 | 0.25 | 0.25 | 80 | 1004.2 |
| 20260504173024 | 17 | 92 | 0.0 | 3.2 | 0.00 | 0.25 | 0.25 | 80 | 1004.3 |
| 20260504172524 | 17 | 91 | 0.0 | 0.0 | 0.00 | 0.25 | 0.25 | 81 | 1004.5 |
| 20260504172023 | 16 | 92 | 0.0 | 0.0 | 0.00 | 0.25 | 0.25 | 81 | 1004.6 |
| 20260504171531 | 16 | 89 | 0.0 | 0.0 | 0.00 | 0.25 | 0.25 | 82 | 1004.7 |
| 20260504171022 | 16 | 88 | 0.0 | 0.0 | 0.00 | 0.25 | 0.25 | 83 | 1004.7 |
| 20260504170523 | 16 | 88 | 0.0 | 0.0 | 0.00 | 0.25 | 0.25 | 83 | 1004.7 |
| 20260504151013 | 16 | 45 | 0.0 | 1.6 | 0.00 | 0.00 | 0.00 | 69 | 1006.0 |
| 20260504150514 | 17 | 42 | 0.0 | 1.6 | 0.00 | 0.00 | 0.00 | 69 | 1006.2 |
| 20260504141013 | 17 | 96 | 0.0 | 1.6 | 0.00 | 0.00 | 0.00 | 66 | 1006.3 |
| 20260504140511 | 17 | 96 | 0.0 | 1.6 | 0.00 | 0.00 | 0.00 | 66 | 1006.3 |
| 20260504130504 | 15 | 137 | 0.0 | 1.6 | 0.00 | 0.00 | 0.00 | 75 | 1006.8 |
| 20260504110559 | 12 | 137 | 0.0 | 0.0 | 0.00 | 0.00 | 0.00 | 82 | 1007.1 |
| 20260504100559 | 12 | 137 | 0.0 | 0.0 | 0.00 | 0.00 | 0.00 | 80 | 1007.4 |
| 20260504100103 | 12 | 137 | 0.0 | 0.0 | 0.00 | 0.00 | 0.00 | 79 | 1007.4 |
| 20260504090108 | 12 | 137 | 0.0 | 0.0 | 0.00 | 0.00 | 0.00 | 82 | 1007.1 |
| 20260504081552 | 12 | 137 | 0.0 | 0.0 | 0.00 | 0.00 | 0.00 | 79 | 1007.4 |
| 20260504081048 | 12 | 137 | 0.0 | 0.0 | 0.00 | 0.00 | 0.00 | 79 | 1007.4 |
| 20260504080547 | 12 | 137 | 0.0 | 0.0 | 0.00 | 0.00 | 0.00 | 78 | 1007.5 |
| 20260504050518 | 17 | 121 | 0.0 | 4.8 | 0.00 | 0.00 | 0.00 | 63 | 1007.6 |
| 20260504050013 | 17 | 101 | 0.0 | 3.2 | 0.00 | 0.00 | 0.00 | 64 | 1007.5 |
| 20260504045513 | 17 | 105 | 0.0 | 3.2 | 0.00 | 0.00 | 0.00 | 65 | 1007.6 |
| 20260504045012 | 17 | 123 | 0.0 | 1.6 | 0.00 | 0.00 | 0.00 | 66 | 1007.5 |
| 20260504044519 | 17 | 107 | 0.0 | 1.6 | 0.00 | 0.00 | 0.00 | 66 | 1007.6 |
| 20260504044012 | 17 | 95 | 0.0 | 0.0 | 0.00 | 0.00 | 0.00 | 66 | 1007.6 |
| 20260504043511 | 17 | 95 | 0.0 | 0.0 | 0.00 | 0.00 | 0.00 | 67 | 1007.7 |
| 20260504043011 | 17 | 95 | 0.0 | 0.0 | 0.00 | 0.00 | 0.00 | 68 | 1007.8 |
| 20260504042510 | 17 | 95 | 0.0 | 0.0 | 0.00 | 0.00 | 0.00 | 68 | 1008.0 |
| 20260504042009 | 17 | 95 | 0.0 | 0.0 | 0.00 | 0.00 | 0.00 | 65 | 1008.1 |
| 20260504041512 | 18 | 95 | 0.0 | 0.0 | 0.00 | 0.00 | 0.00 | 65 | 1008.2 |
| 20260504041008 | 18 | 95 | 0.0 | 1.6 | 0.00 | 0.00 | 0.00 | 64 | 1008.3 |
| 20260504040509 | 18 | 95 | 0.0 | 1.6 | 0.00 | 0.00 | 0.00 | 64 | 1008.4 |
| 20260504040013 | 18 | 95 | 0.0 | 0.0 | 0.00 | 0.00 | 0.00 | 66 | 1008.4 |
| 20260504035508 | 18 | 95 | 0.0 | 0.0 | 0.00 | 0.00 | 0.00 | 63 | 1008.5 |
| 20260504035009 | 19 | 95 | 0.0 | 0.0 | 0.00 | 0.00 | 0.00 | 62 | 1008.5 |
| 20260504034508 | 18 | 95 | 0.0 | 0.0 | 0.00 | 0.00 | 0.00 | 60 | 1008.6 |
| 20260504034013 | 18 | 95 | 0.0 | 1.6 | 0.00 | 0.00 | 0.00 | 60 | 1008.5 |
| 20260504033511 | 18 | 96 | 0.0 | 4.8 | 0.00 | 0.00 | 0.00 | 64 | 1008.5 |
| 20260504033011 | 18 | 101 | 0.0 | 4.8 | 0.00 | 0.00 | 0.00 | 65 | 1008.5 |
| 20260504032508 | 18 | 98 | 0.0 | 1.6 | 0.00 | 0.00 | 0.00 | 63 | 1008.3 |
| 20260504032009 | 18 | 98 | 0.0 | 1.6 | 0.00 | 0.00 | 0.00 | 63 | 1008.2 |
| 20260504031508 | 18 | 98 | 0.0 | 1.6 | 0.00 | 0.00 | 0.00 | 64 | 1008.6 |
| 20260504031006 | 18 | 98 | 0.0 | 0.0 | 0.00 | 0.00 | 0.00 | 66 | 1008.9 |
| 20260504030509 | 17 | 98 | 0.0 | 0.0 | 0.00 | 0.00 | 0.00 | 65 | 1009.0 |
| 20260504030008 | 17 | 98 | 0.0 | 0.0 | 0.00 | 0.00 | 0.00 | 67 | 1009.0 |
| 20260504025509 | 17 | 98 | 0.0 | 0.0 | 0.00 | 0.00 | 0.00 | 69 | 1008.9 |
| 20260504025006 | 17 | 98 | 0.0 | 0.0 | 0.00 | 0.00 | 0.00 | 66 | 1008.8 |
| 20260504024506 | 17 | 98 | 0.0 | 0.0 | 0.00 | 0.00 | 0.00 | 67 | 1008.6 |
| 20260504024005 | 18 | 98 | 0.0 | 0.0 | 0.00 | 0.00 | 0.00 | 65 | 1008.7 |
| 20260504023505 | 18 | 98 | 0.0 | 0.0 | 0.00 | 0.00 | 0.00 | 65 | 1008.7 |
| 20260504023006 | 18 | 98 | 0.0 | 0.0 | 0.00 | 0.00 | 0.00 | 65 | 1008.7 |
| 20260504022507 | 18 | 98 | 0.0 | 0.0 | 0.00 | 0.00 | 0.00 | 64 | 1008.7 |
| 20260504022006 | 18 | 98 | 0.0 | 0.0 | 0.00 | 0.00 | 0.00 | 66 | 1008.7 |
| 20260504021508 | 18 | 98 | 0.0 | 0.0 | 0.00 | 0.00 | 0.00 | 63 | 1008.6 |
| 20260504021005 | 19 | 98 | 0.0 | 0.0 | 0.00 | 0.00 | 0.00 | 63 | 1008.7 |
| 20260504020504 | 19 | 98 | 0.0 | 0.0 | 0.00 | 0.00 | 0.00 | 62 | 1008.6 |
| 20260504020004 | 19 | 98 | 0.0 | 0.0 | 0.00 | 0.00 | 0.00 | 60 | 1008.6 |
| 20260504015504 | 19 | 98 | 0.0 | 0.0 | 0.00 | 0.00 | 0.00 | 60 | 1008.6 |
| 20260504015004 | 19 | 98 | 0.0 | 0.0 | 0.00 | 0.00 | 0.00 | 60 | 1008.6 |
| 20260504014506 | 20 | 98 | 0.0 | 1.6 | 0.00 | 0.00 | 0.00 | 59 | 1008.5 |
| 20260504014004 | 20 | 98 | 0.0 | 1.6 | 0.00 | 0.00 | 0.00 | 59 | 1008.6 |
| 20260504013504 | 20 | 98 | 0.0 | 0.0 | 0.00 | 0.00 | 0.00 | 61 | 1008.6 |
| 20260504013004 | 20 | 98 | 0.0 | 0.0 | 0.00 | 0.00 | 0.00 | 59 | 1008.5 |
| 20260504012504 | 21 | 98 | 0.0 | 0.0 | 0.00 | 0.00 | 0.00 | 58 | 1008.4 |
| 20260504012004 | 21 | 98 | 0.0 | 0.0 | 0.00 | 0.00 | 0.00 | 57 | 1008.3 |
| 20260504011510 | 21 | 98 | 0.0 | 0.0 | 0.00 | 0.00 | 0.00 | 54 | 1008.2 |
| 20260504011002 | 22 | 98 | 0.0 | 1.6 | 0.00 | 0.00 | 0.00 | 55 | 1008.2 |
| 20260504010504 | 22 | 98 | 0.0 | 1.6 | 0.00 | 0.00 | 0.00 | 54 | 1008.2 |
| 20260504010002 | 22 | 98 | 0.0 | 0.0 | 0.00 | 0.00 | 0.00 | 49 | 1008.1 |
| 20260504005502 | 22 | 98 | 0.0 | 0.0 | 0.00 | 0.00 | 0.00 | 48 | 1008.1 |
| 20260504005004 | 23 | 98 | 0.0 | 0.0 | 0.00 | 0.00 | 0.00 | 47 | 1008.2 |
| 20260504004502 | 23 | 98 | 0.0 | 0.0 | 0.00 | 0.00 | 0.00 | 47 | 1008.1 |
| 20260504004002 | 23 | 98 | 0.0 | 0.0 | 0.00 | 0.00 | 0.00 | 45 | 1008.2 |
| 20260504003501 | 23 | 98 | 0.0 | 1.6 | 0.00 | 0.00 | 0.00 | 47 | 1008.2 |
| 20260504003003 | 23 | 102 | 0.0 | 1.6 | 0.00 | 0.00 | 0.00 | 44 | 1008.2 |
| 20260504002501 | 23 | 101 | 0.0 | 0.0 | 0.00 | 0.00 | 0.00 | 44 | 1008.2 |
| 20260504002001 | 24 | 101 | 0.0 | 0.0 | 0.00 | 0.00 | 0.00 | 44 | 1008.2 |
| 20260504001502 | 24 | 100 | 0.0 | 0.0 | 0.00 | 0.00 | 0.00 | 42 | 1008.2 |
| 20260504001101 | 24 | 100 | 0.0 | 1.6 | 0.00 | 0.00 | 0.00 | 43 | 1008.2 |
| 20260504000600 | 24 | 100 | 0.0 | 3.2 | 0.00 | 0.00 | 0.00 | 42 | 1008.2 |
| 20260504000130 | 24 | 100 | 0.0 | 3.2 | 0.00 | 0.00 | 0.00 | 42 | 1008.2 |
| 20260503235559 | 25 | 317 | 0.0 | 3.2 | 0.00 | 0.00 | 0.00 | 41 | 1008.2 |
| 20260503235101 | 25 | 292 | 0.0 | 6.4 | 0.00 | 0.00 | 0.00 | 41 | 1008.2 |
| 20260503234600 | 25 | 236 | 1.6 | 12.9 | 0.00 | 0.00 | 0.00 | 40 | 1008.2 |
| 20260503234059 | 25 | 189 | 1.6 | 12.9 | 0.00 | 0.00 | 0.00 | 40 | 1008.2 |
| 20260503233559 | 25 | 29 | 0.0 | 6.4 | 0.00 | 0.00 | 0.00 | 40 | 1008.3 |
| 20260503233059 | 25 | 333 | 0.0 | 11.3 | 0.00 | 0.00 | 0.00 | 40 | 1008.3 |
| 20260503232557 | 25 | 160 | 0.0 | 12.9 | 0.00 | 0.00 | 0.00 | 40 | 1008.4 |
| 20260503232057 | 25 | 208 | 1.6 | 12.9 | 0.00 | 0.00 | 0.00 | 39 | 1008.4 |
| 20260503231558 | 25 | 80 | 1.6 | 8.0 | 0.00 | 0.00 | 0.00 | 39 | 1008.4 |
| 20260503231057 | 25 | 298 | 0.0 | 6.4 | 0.00 | 0.00 | 0.00 | 40 | 1008.5 |
| 20260503230556 | 25 | 301 | 0.0 | 8.0 | 0.00 | 0.00 | 0.00 | 39 | 1008.5 |
| 20260503230058 | 25 | 310 | 1.6 | 8.0 | 0.00 | 0.00 | 0.00 | 40 | 1008.5 |
| 20260503225555 | 25 | 310 | 0.0 | 11.3 | 0.00 | 0.00 | 0.00 | 40 | 1008.5 |
| 20260503225055 | 25 | 190 | 1.6 | 11.3 | 0.00 | 0.00 | 0.00 | 39 | 1008.6 |
| 20260503224555 | 25 | 136 | 1.6 | 16.1 | 0.00 | 0.00 | 0.00 | 38 | 1008.6 |
| 20260503224054 | 25 | 103 | 0.0 | 11.3 | 0.00 | 0.00 | 0.00 | 39 | 1008.6 |
| 20260503223554 | 25 | 107 | 0.0 | 11.3 | 0.00 | 0.00 | 0.00 | 39 | 1008.7 |
| 20260503223054 | 25 | 93 | 1.6 | 11.3 | 0.00 | 0.00 | 0.00 | 37 | 1008.6 |
| 20260503222552 | 25 | 76 | 1.6 | 8.0 | 0.00 | 0.00 | 0.00 | 37 | 1008.7 |
| 20260503222051 | 25 | 342 | 1.6 | 11.3 | 0.00 | 0.00 | 0.00 | 38 | 1008.8 |
| 20260503221552 | 25 | 145 | 1.6 | 12.9 | 0.00 | 0.00 | 0.00 | 37 | 1008.8 |
| 20260503221051 | 25 | 194 | 0.0 | 11.3 | 0.00 | 0.00 | 0.00 | 39 | 1008.9 |
| 20260503220549 | 25 | 124 | 1.6 | 11.3 | 0.00 | 0.00 | 0.00 | 36 | 1009.0 |
| 20260503220050 | 25 | 171 | 1.6 | 14.5 | 0.00 | 0.00 | 0.00 | 36 | 1009.0 |
| 20260503215548 | 25 | 117 | 3.2 | 14.5 | 0.00 | 0.00 | 0.00 | 36 | 1009.1 |
| 20260503215048 | 25 | 170 | 0.0 | 11.3 | 0.00 | 0.00 | 0.00 | 37 | 1009.2 |
| 20260503214548 | 25 | 265 | 1.6 | 11.3 | 0.00 | 0.00 | 0.00 | 37 | 1009.2 |
| 20260503214047 | 25 | 136 | 3.2 | 11.3 | 0.00 | 0.00 | 0.00 | 36 | 1009.3 |
| 20260503213546 | 25 | 133 | 1.6 | 12.9 | 0.00 | 0.00 | 0.00 | 37 | 1009.2 |
| 20260503213047 | 25 | 139 | 3.2 | 12.9 | 0.00 | 0.00 | 0.00 | 36 | 1009.3 |
| 20260503212546 | 25 | 134 | 3.2 | 12.9 | 0.00 | 0.00 | 0.00 | 35 | 1009.3 |
| 20260503212045 | 25 | 126 | 3.2 | 12.9 | 0.00 | 0.00 | 0.00 | 37 | 1009.3 |
| 20260503211545 | 25 | 101 | 0.0 | 25.7 | 0.00 | 0.00 | 0.00 | 38 | 1009.4 |
| 20260503211043 | 25 | 129 | 1.6 | 25.7 | 0.00 | 0.00 | 0.00 | 36 | 1009.5 |
| 20260503210542 | 25 | 120 | 4.8 | 12.9 | 0.00 | 0.00 | 0.00 | 36 | 1009.6 |
| 20260503210042 | 25 | 252 | 3.2 | 9.7 | 0.00 | 0.00 | 0.00 | 36 | 1009.6 |
| 20260503205542 | 25 | 100 | 1.6 | 17.7 | 0.00 | 0.00 | 0.00 | 38 | 1009.7 |
| 20260503205041 | 25 | 95 | 6.4 | 19.3 | 0.00 | 0.00 | 0.00 | 35 | 1009.8 |
| 20260503204542 | 25 | 134 | 4.8 | 20.9 | 0.00 | 0.00 | 0.00 | 36 | 1010.0 |
| 20260503204040 | 25 | 88 | 3.2 | 17.7 | 0.00 | 0.00 | 0.00 | 35 | 1009.9 |
| 20260503203540 | 25 | 143 | 4.8 | 17.7 | 0.00 | 0.00 | 0.00 | 35 | 1009.9 |
| 20260503203047 | 25 | 73 | 1.6 | 16.1 | 0.00 | 0.00 | 0.00 | 38 | 1009.9 |
| 20260503202539 | 25 | 53 | 3.2 | 16.1 | 0.00 | 0.00 | 0.00 | 37 | 1010.0 |
| 20260503202038 | 25 | 306 | 3.2 | 9.7 | 0.00 | 0.00 | 0.00 | 36 | 1010.2 |
| 20260503201538 | 25 | 102 | 1.6 | 11.3 | 0.00 | 0.00 | 0.00 | 37 | 1010.2 |
| 20260503201035 | 24 | 111 | 0.0 | 19.3 | 0.00 | 0.00 | 0.00 | 39 | 1010.2 |
| 20260503200533 | 24 | 72 | 1.6 | 19.3 | 0.00 | 0.00 | 0.00 | 37 | 1010.3 |
| 20260503200033 | 24 | 107 | 6.4 | 17.7 | 0.00 | 0.00 | 0.00 | 37 | 1010.7 |
| 20260503195531 | 23 | 174 | 3.2 | 12.9 | 0.00 | 0.00 | 0.00 | 37 | 1010.8 |
| 20260503195030 | 23 | 186 | 3.2 | 17.7 | 0.00 | 0.00 | 0.00 | 38 | 1010.8 |
| 20260503194533 | 23 | 326 | 4.8 | 17.7 | 0.00 | 0.00 | 0.00 | 36 | 1011.0 |
| 20260503194029 | 23 | 153 | 4.8 | 16.1 | 0.00 | 0.00 | 0.00 | 38 | 1011.0 |
| 20260503193529 | 23 | 153 | 6.4 | 20.9 | 0.00 | 0.00 | 0.00 | 38 | 1011.2 |
| 20260503193028 | 23 | 128 | 3.2 | 17.7 | 0.00 | 0.00 | 0.00 | 38 | 1011.3 |
| 20260503192526 | 23 | 123 | 4.8 | 17.7 | 0.00 | 0.00 | 0.00 | 38 | 1011.4 |
| 20260503192026 | 23 | 94 | 4.8 | 17.7 | 0.00 | 0.00 | 0.00 | 37 | 1011.5 |
| 20260503191534 | 23 | 86 | 4.8 | 17.7 | 0.00 | 0.00 | 0.00 | 38 | 1011.7 |
| 20260503191025 | 23 | 113 | 3.2 | 16.1 | 0.00 | 0.00 | 0.00 | 37 | 1011.9 |
| 20260503190522 | 23 | 181 | 0.0 | 19.3 | 0.00 | 0.00 | 0.00 | 41 | 1011.9 |
| 20260503190021 | 22 | 36 | 4.8 | 19.3 | 0.00 | 0.00 | 0.00 | 39 | 1012.0 |
| 20260503185521 | 22 | 124 | 4.8 | 16.1 | 0.00 | 0.00 | 0.00 | 39 | 1012.1 |
| 20260503185020 | 22 | 107 | 3.2 | 14.5 | 0.00 | 0.00 | 0.00 | 40 | 1012.2 |
| 20260503184519 | 22 | 111 | 0.0 | 9.7 | 0.00 | 0.00 | 0.00 | 40 | 1012.4 |
| 20260503184018 | 22 | 259 | 1.6 | 9.7 | 0.00 | 0.00 | 0.00 | 40 | 1012.6 |
| 20260503183518 | 22 | 326 | 1.6 | 11.3 | 0.00 | 0.00 | 0.00 | 42 | 1012.6 |
| 20260503183016 | 22 | 107 | 4.8 | 14.5 | 0.00 | 0.00 | 0.00 | 41 | 1012.7 |
| 20260503182514 | 21 | 138 | 3.2 | 16.1 | 0.00 | 0.00 | 0.00 | 41 | 1012.9 |
| 20260503182012 | 21 | 205 | 1.6 | 16.1 | 0.00 | 0.00 | 0.00 | 41 | 1013.0 |
| 20260503181512 | 21 | 103 | 6.4 | 16.1 | 0.00 | 0.00 | 0.00 | 40 | 1013.2 |
| 20260503181011 | 21 | 184 | 3.2 | 22.5 | 0.00 | 0.00 | 0.00 | 42 | 1013.3 |
| 20260503180515 | 21 | 105 | 1.6 | 16.1 | 0.00 | 0.00 | 0.00 | 42 | 1013.4 |